createdAt,value
2022-09-01T00:01:32.466Z,23.03
2022-09-01T00:11:58.471Z,23.01
2022-09-01T00:17:25.714Z,23.01
2022-09-01T00:22:30.244Z,23.02
2022-09-01T00:27:33.681Z,23.04
2022-09-01T00:32:38.113Z,23.04
2022-09-01T00:37:44.263Z,23.04
2022-09-01T00:42:50.579Z,23.04
2022-09-01T00:47:56.849Z,23.05
2022-09-01T00:53:12.029Z,23.05
2022-09-01T00:58:18.373Z,23.06
2022-09-01T01:06:16.663Z,23.10
2022-09-01T01:11:21.339Z,23.11
2022-09-01T01:22:13.257Z,23.11
2022-09-01T01:27:20.959Z,23.14
2022-09-01T01:32:26.108Z,23.15
2022-09-01T01:37:33.572Z,23.14
2022-09-01T01:42:43.807Z,23.10
2022-09-01T01:47:58.025Z,23.07
2022-09-01T01:53:10.837Z,23.05
2022-09-01T01:58:31.543Z,23.00
2022-09-01T02:03:40.342Z,22.97
2022-09-01T02:08:46.281Z,22.93
2022-09-01T02:13:58.318Z,22.88
2022-09-01T02:19:25.060Z,22.80
2022-09-01T02:24:34.762Z,22.73
2022-09-01T02:29:43.350Z,22.65
2022-09-01T02:34:56.117Z,22.60
2022-09-01T02:39:58.845Z,22.57
2022-09-01T02:45:02.738Z,22.54
2022-09-01T02:50:06.966Z,22.51
2022-09-01T02:55:10.308Z,22.48
2022-09-01T03:07:33.737Z,22.38
2022-09-01T03:12:48.418Z,22.35
2022-09-01T03:18:02.171Z,22.35
2022-09-01T03:23:11.326Z,22.30
2022-09-01T03:28:17.084Z,22.23
2022-09-01T03:33:33.573Z,22.19
2022-09-01T03:38:43.431Z,22.12
2022-09-01T03:43:49.566Z,22.07
2022-09-01T03:49:01.059Z,22.03
2022-09-01T03:54:04.792Z,21.95
2022-09-01T03:59:17.510Z,21.93
2022-09-01T04:04:26.768Z,21.91
2022-09-01T04:09:37.355Z,21.88
2022-09-01T04:14:44.978Z,21.85
2022-09-01T04:46:14.552Z,21.62
2022-09-01T04:51:29.894Z,21.56
2022-09-01T04:56:46.332Z,21.56
2022-09-01T05:02:00.331Z,21.57
2022-09-01T05:07:07.416Z,21.59
2022-09-01T05:12:23.036Z,21.62
2022-09-01T05:17:29.425Z,21.60
2022-09-01T05:22:36.204Z,21.61
2022-09-01T05:27:50.201Z,21.57
2022-09-01T05:32:56.728Z,21.55
2022-09-01T05:38:04.200Z,21.56
2022-09-01T05:43:15.426Z,21.55
2022-09-01T05:48:27.374Z,21.56
2022-09-01T05:53:32.114Z,21.60
2022-09-01T06:04:09.230Z,21.66
2022-09-01T06:09:15.180Z,21.71
2022-09-01T06:14:20.788Z,21.77
2022-09-01T06:19:34.900Z,21.83
2022-09-01T06:24:46.279Z,21.89
2022-09-01T06:29:58.556Z,21.95
2022-09-01T06:35:16.395Z,22.00
2022-09-01T06:40:20.827Z,22.07
2022-09-01T06:56:21.933Z,22.30
2022-09-01T07:01:32.911Z,22.68
2022-09-01T07:07:00.465Z,23.11
2022-09-01T07:13:08.962Z,23.62
2022-09-01T07:18:17.256Z,23.66
2022-09-01T07:23:24.572Z,23.88
2022-09-01T07:28:37.689Z,24.30
2022-09-01T07:33:44.409Z,24.45
2022-09-01T07:44:39.798Z,25.04
2022-09-01T07:51:34.250Z,25.08
2022-09-01T07:55:59.576Z,25.28
2022-09-01T08:01:15.740Z,25.55
2022-09-01T08:06:27.968Z,25.89
2022-09-01T08:17:33.133Z,26.42
2022-09-01T08:22:46.883Z,26.67
2022-09-01T08:28:06.036Z,26.94
2022-09-01T08:33:19.542Z,27.15
2022-09-01T08:38:28.151Z,27.40
2022-09-01T08:44:02.102Z,27.62
2022-09-01T08:49:28.642Z,27.85
2022-09-01T08:55:05.119Z,28.09
2022-09-01T09:00:18.637Z,28.31
2022-09-01T09:05:56.837Z,28.57
2022-09-01T09:12:05.534Z,28.84
2022-09-01T09:17:20.482Z,29.12
2022-09-01T09:22:26.098Z,29.37
2022-09-01T09:27:48.892Z,29.59
2022-09-01T09:33:51.794Z,29.75
2022-09-01T09:39:31.722Z,29.90
2022-09-01T09:44:54.628Z,30.01
2022-09-01T09:50:27.912Z,30.13
2022-09-01T09:55:36.546Z,30.07
2022-09-01T10:00:41.808Z,29.95
2022-09-01T10:05:52.170Z,29.92
2022-09-01T10:11:00.741Z,30.10
2022-09-01T10:16:44.418Z,30.13
2022-09-01T10:22:01.110Z,30.00
2022-09-01T10:27:21.883Z,30.02
2022-09-01T10:32:54.944Z,30.02
2022-09-01T10:38:12.074Z,29.95
2022-09-01T10:43:58.745Z,30.16
2022-09-01T10:49:04.360Z,30.19
2022-09-01T10:54:51.097Z,30.23
2022-09-01T11:06:12.493Z,30.28
2022-09-01T11:11:39.793Z,30.26
2022-09-01T11:17:35.899Z,30.33
2022-09-01T11:23:10.921Z,30.10
2022-09-01T11:28:20.904Z,29.92
2022-09-01T11:34:03.167Z,29.94
2022-09-01T11:39:40.298Z,29.78
2022-09-01T11:45:05.379Z,29.92
2022-09-01T11:51:14.937Z,30.08
2022-09-01T11:56:31.946Z,29.96
2022-09-01T12:01:45.721Z,29.85
2022-09-01T12:07:23.552Z,29.94
2022-09-01T12:12:36.891Z,29.93
2022-09-01T12:17:43.387Z,29.66
2022-09-01T12:22:53.171Z,29.39
2022-09-01T12:28:01.176Z,29.26
2022-09-01T12:33:27.514Z,29.42
2022-09-01T12:38:35.276Z,29.49
2022-09-01T12:43:41.255Z,29.41
2022-09-01T12:48:59.324Z,29.41
2022-09-01T12:54:06.402Z,29.46
2022-09-01T12:59:37.442Z,29.42
2022-09-01T13:04:52.009Z,29.43
2022-09-01T13:10:01.340Z,29.58
2022-09-01T13:15:03.365Z,29.65
2022-09-01T13:20:12.207Z,29.48
2022-09-01T13:25:35.102Z,29.31
2022-09-01T13:30:40.562Z,29.24
2022-09-01T13:35:46.353Z,29.29
2022-09-01T13:40:59.455Z,29.31
2022-09-01T13:46:08.375Z,29.31
2022-09-01T13:51:16.033Z,29.18
2022-09-01T13:56:32.064Z,29.22
2022-09-01T14:01:34.252Z,29.21
2022-09-01T14:06:46.988Z,29.16
2022-09-01T14:22:34.184Z,28.99
2022-09-01T14:27:44.861Z,29.05
2022-09-01T14:32:51.911Z,29.07
2022-09-01T14:38:03.427Z,29.03
2022-09-01T14:43:18.344Z,29.07
2022-09-01T14:48:24.466Z,28.95
2022-09-01T14:53:58.045Z,28.93
2022-09-01T14:59:14.648Z,28.83
2022-09-01T15:04:25.316Z,28.79
2022-09-01T15:09:33.531Z,28.66
2022-09-01T15:14:41.977Z,28.68
2022-09-01T15:19:44.697Z,28.75
2022-09-01T15:24:51.463Z,28.69
2022-09-01T15:30:02.073Z,28.66
2022-09-01T15:35:07.856Z,28.61
2022-09-01T15:40:22.419Z,28.50
2022-09-01T15:45:31.090Z,28.62
2022-09-01T15:50:36.984Z,28.55
2022-09-01T15:55:54.446Z,28.54
2022-09-01T16:01:05.159Z,28.51
2022-09-01T16:06:14.845Z,28.45
2022-09-01T16:11:17.109Z,28.48
2022-09-01T16:16:57.896Z,28.51
2022-09-01T16:22:35.389Z,28.50
2022-09-01T16:27:44.822Z,28.48
2022-09-01T16:32:55.679Z,28.46
2022-09-01T16:38:42.646Z,28.47
2022-09-01T16:44:02.805Z,28.45
2022-09-01T16:49:49.454Z,28.28
2022-09-01T16:55:18.953Z,28.19
2022-09-01T17:00:36.120Z,28.17
2022-09-01T17:05:57.273Z,28.11
2022-09-01T17:11:40.083Z,28.12
2022-09-01T17:16:50.228Z,28.08
2022-09-01T17:22:10.231Z,28.04
2022-09-01T17:27:59.529Z,28.02
2022-09-01T17:33:36.932Z,27.94
2022-09-01T17:38:55.808Z,27.95
2022-09-01T17:44:22.637Z,27.89
2022-09-01T17:49:36.087Z,27.87
2022-09-01T17:54:58.742Z,27.80
2022-09-01T18:00:05.361Z,27.74
2022-09-01T18:05:25.551Z,27.70
2022-09-01T18:10:49.173Z,27.66
2022-09-01T18:16:01.007Z,27.61
2022-09-01T18:21:36.058Z,27.50
2022-09-01T18:26:48.370Z,27.47
2022-09-01T18:32:34.130Z,27.45
2022-09-01T18:38:14.103Z,27.44
2022-09-01T18:49:28.377Z,27.42
2022-09-01T19:00:18.755Z,27.31
2022-09-01T19:05:52.991Z,27.28
2022-09-01T19:11:22.397Z,27.21
2022-09-01T19:16:56.587Z,27.06
2022-09-01T19:22:06.678Z,27.02
2022-09-01T19:27:32.127Z,27.02
2022-09-01T19:32:37.603Z,27.01
2022-09-01T19:37:43.730Z,27.02
2022-09-01T19:43:42.044Z,27.03
2022-09-01T19:49:29.077Z,27.04
2022-09-01T19:54:53.361Z,27.06
2022-09-01T20:00:19.613Z,27.07
2022-09-01T20:05:52.789Z,27.06
2022-09-01T20:11:49.065Z,27.06
2022-09-01T20:17:05.948Z,27.06
2022-09-01T20:22:56.977Z,27.06
2022-09-01T20:29:12.168Z,27.05
2022-09-01T20:34:27.736Z,27.06
2022-09-01T20:40:09.238Z,27.08
2022-09-01T20:45:29.997Z,27.06
2022-09-01T20:50:51.238Z,27.02
2022-09-01T20:56:11.080Z,27.00
2022-09-01T21:01:58.222Z,26.96
2022-09-01T21:07:42.088Z,26.92
2022-09-01T21:13:02.798Z,26.92
2022-09-01T21:18:13.769Z,26.94
2022-09-01T21:23:25.611Z,26.92
2022-09-01T21:28:36.397Z,26.89
2022-09-01T21:33:50.715Z,26.85
2022-09-01T21:38:58.992Z,26.81
2022-09-01T21:49:39.243Z,26.72
2022-09-01T21:54:48.383Z,26.69
2022-09-01T21:59:54.610Z,26.67
2022-09-01T22:05:01.421Z,26.66
2022-09-01T22:10:07.537Z,26.63
2022-09-01T22:15:17.244Z,26.59
2022-09-01T22:20:24.465Z,26.57
2022-09-01T22:25:31.485Z,26.55
2022-09-01T22:30:48.595Z,26.54
2022-09-01T22:35:59.878Z,26.51
2022-09-01T22:41:12.243Z,26.46
2022-09-01T22:46:21.934Z,26.38
2022-09-01T22:51:25.100Z,26.29
2022-09-01T22:56:33.684Z,26.22
2022-09-01T23:01:49.184Z,26.16
2022-09-01T23:06:59.684Z,26.11
2022-09-01T23:12:07.687Z,26.07
2022-09-01T23:17:12.085Z,26.03
2022-09-01T23:22:21.102Z,26.00
2022-09-01T23:27:27.282Z,25.96
2022-09-01T23:32:36.827Z,25.95
2022-09-01T23:37:43.602Z,25.95
2022-09-01T23:42:48.673Z,25.91
2022-09-01T23:48:02.257Z,25.88
2022-09-01T23:53:10.543Z,25.82
2022-09-01T23:58:15.607Z,25.70
